Time;durP1;ratioP1;P1;durP2;ratioP2;P2;SDS_P1;SDS_P2;PMS_P1;PMS_P2;Temp;Humidity;BMP_temperature;BMP_pressure;BME280_temperature;BME280_humidity;BME280_pressure;Samples;Min_cycle;Max_cycle;Signal;HPM_P1;HPM_P2
2021/09/15 00:00:44;;;;;;;10.65;3.83;;;21.40;61.80;;;;;;5038459;28;20541;-70
2021/09/15 00:03:10;;;;;;;8.13;3.88;;;21.40;61.80;;;;;;5036635;28;20124;-70
2021/09/15 00:05:35;;;;;;;9.07;4.25;;;21.40;61.80;;;;;;5045331;28;20044;-70
2021/09/15 00:08:01;;;;;;;10.23;4.15;;;21.50;61.90;;;;;;5036407;28;20057;-70
2021/09/15 00:10:27;;;;;;;9.77;3.80;;;21.40;61.80;;;;;;5040867;28;20044;-70
2021/09/15 00:12:52;;;;;;;11.38;3.95;;;21.40;61.80;;;;;;5038574;28;20037;-69
2021/09/15 00:15:18;;;;;;;13.02;3.78;;;21.40;61.80;;;;;;5036588;28;20061;-70
2021/09/15 00:17:43;;;;;;;10.32;4.20;;;21.40;61.80;;;;;;5038825;28;20852;-70
2021/09/15 00:20:10;;;;;;;9.02;3.88;;;21.40;61.80;;;;;;5035271;28;20048;-69
2021/09/15 00:22:35;;;;;;;9.25;3.88;;;21.40;61.80;;;;;;5035844;28;20129;-70
2021/09/15 00:25:01;;;;;;;8.38;3.80;;;21.40;61.80;;;;;;5036869;28;20519;-70
2021/09/15 00:27:27;;;;;;;9.15;3.85;;;21.40;61.80;;;;;;5038171;28;20091;-70
2021/09/15 00:29:53;;;;;;;14.18;4.05;;;21.40;61.80;;;;;;5043101;28;20107;-70
2021/09/15 00:32:19;;;;;;;7.85;3.92;;;21.40;61.80;;;;;;5035710;28;20041;-70
2021/09/15 00:34:44;;;;;;;10.18;3.97;;;21.40;61.80;;;;;;5044260;28;20041;-70
2021/09/15 00:37:10;;;;;;;11.05;3.72;;;21.40;61.80;;;;;;5036191;28;20052;-70
2021/09/15 00:39:36;;;;;;;7.85;3.75;;;21.40;61.80;;;;;;5038623;28;20046;-70
2021/09/15 00:42:02;;;;;;;12.48;3.65;;;21.40;61.80;;;;;;5043355;28;20049;-69
2021/09/15 00:44:27;;;;;;;9.02;3.90;;;21.40;61.80;;;;;;5035856;28;20044;-70
2021/09/15 00:46:55;;;;;;;10.00;3.70;;;21.40;61.90;;;;;;5038354;28;20056;-70
2021/09/15 00:49:21;;;;;;;8.40;3.78;;;21.40;61.80;;;;;;5036695;28;20045;-70
2021/09/15 00:51:48;;;;;;;9.98;3.78;;;21.40;61.80;;;;;;5036192;28;20148;-70
2021/09/15 00:54:16;;;;;;;9.25;3.70;;;21.40;61.80;;;;;;5036076;28;20041;-70
2021/09/15 00:56:43;;;;;;;10.10;3.58;;;21.40;61.80;;;;;;5035491;28;20061;-70
2021/09/15 00:59:09;;;;;;;7.50;3.53;;;21.40;61.80;;;;;;5035264;28;20057;-70
2021/09/15 01:01:37;;;;;;;10.95;3.67;;;21.40;61.90;;;;;;5036674;28;20029;-70
2021/09/15 01:04:06;;;;;;;9.00;3.83;;;21.40;61.80;;;;;;5031580;28;20033;-70
2021/09/15 01:06:33;;;;;;;10.60;3.38;;;21.40;61.90;;;;;;5043384;28;20047;-69
2021/09/15 01:09:05;;;;;;;11.27;4.07;;;21.40;61.80;;;;;;5037296;28;20039;-70
2021/09/15 01:11:34;;;;;;;8.85;3.28;;;21.40;61.80;;;;;;5035584;28;20037;-70
2021/09/15 01:14:23;;;;;;;7.05;3.30;;;21.40;61.90;;;;;;5031016;28;20098;-70
2021/09/15 01:17:15;;;;;;;8.30;3.42;;;21.40;61.90;;;;;;5037113;28;20060;-70
2021/09/15 01:20:01;;;;;;;7.30;3.50;;;21.40;61.90;;;;;;5033862;28;20041;-70
2021/09/15 01:22:45;;;;;;;6.90;3.50;;;21.40;61.90;;;;;;5035323;28;20147;-69
2021/09/15 01:25:29;;;;;;;7.53;3.25;;;21.40;61.90;;;;;;5036537;28;20158;-70
2021/09/15 01:28:17;;;;;;;8.48;3.53;;;21.40;61.90;;;;;;5039034;28;20073;-70
2021/09/15 01:30:48;;;;;;;8.15;3.50;;;21.40;61.90;;;;;;5051734;28;20047;-70
2021/09/15 01:33:16;;;;;;;7.03;3.15;;;21.40;61.90;;;;;;5036903;28;20053;-70
2021/09/15 01:35:43;;;;;;;7.97;3.42;;;21.40;61.90;;;;;;5037651;28;20124;-70
2021/09/15 01:38:10;;;;;;;8.88;3.35;;;21.40;61.90;;;;;;5035775;28;20084;-70
2021/09/15 01:40:38;;;;;;;8.85;3.42;;;21.40;61.90;;;;;;5037779;28;20044;-70
2021/09/15 01:43:04;;;;;;;9.13;3.83;;;21.40;61.90;;;;;;5034951;28;20040;-70
2021/09/15 01:45:30;;;;;;;8.15;3.40;;;21.40;61.90;;;;;;5034968;28;20041;-69
2021/09/15 01:47:56;;;;;;;8.18;3.38;;;21.40;61.90;;;;;;5034965;28;20094;-70
2021/09/15 01:50:24;;;;;;;7.20;3.03;;;21.40;61.90;;;;;;5036143;28;20061;-69
2021/09/15 01:52:50;;;;;;;10.38;3.35;;;21.40;61.90;;;;;;5036554;28;20079;-69
2021/09/15 01:55:25;;;;;;;8.82;3.25;;;21.40;61.90;;;;;;5039602;28;20763;-69
2021/09/15 01:58:10;;;;;;;6.95;3.08;;;21.40;61.90;;;;;;5042527;28;20048;-70
2021/09/15 02:01:00;;;;;;;7.70;3.15;;;21.50;61.90;;;;;;5041792;28;20038;-69
2021/09/15 02:03:54;;;;;;;6.30;2.80;;;21.40;61.90;;;;;;5031875;28;20064;-69
2021/09/15 02:06:41;;;;;;;7.75;3.20;;;21.40;61.90;;;;;;5032624;28;20145;-69
2021/09/15 02:09:22;;;;;;;8.55;3.10;;;21.40;61.90;;;;;;5035499;28;20067;-70
2021/09/15 02:12:02;;;;;;;9.93;3.40;;;21.40;61.90;;;;;;5036953;28;20037;-69
2021/09/15 02:14:34;;;;;;;7.00;3.08;;;21.50;61.90;;;;;;5034533;28;20041;-69
2021/09/15 02:17:00;;;;;;;7.80;3.05;;;21.40;61.90;;;;;;5022090;28;20041;-69
2021/09/15 02:19:27;;;;;;;8.07;3.17;;;21.40;61.90;;;;;;5040246;28;20812;-69
2021/09/15 02:22:13;;;;;;;10.07;3.40;;;21.40;61.90;;;;;;5033344;28;20041;-69
2021/09/15 02:24:58;;;;;;;7.03;2.80;;;21.40;61.90;;;;;;5038205;28;20037;-69
2021/09/15 02:27:55;;;;;;;6.88;3.08;;;21.40;61.90;;;;;;5039730;28;20091;-69
2021/09/15 02:30:40;;;;;;;7.13;2.90;;;21.40;61.90;;;;;;5033195;28;20124;-69
2021/09/15 02:33:13;;;;;;;7.38;3.28;;;21.40;61.90;;;;;;5047261;28;20037;-72
2021/09/15 02:35:47;;;;;;;6.53;3.30;;;21.40;61.90;;;;;;5043292;28;20536;-71
2021/09/15 02:38:33;;;;;;;;;;;21.40;61.90;;;;;;5036208;28;20033;-71
2021/09/15 02:41:34;;;;;;;7.47;3.22;;;21.40;61.90;;;;;;5023228;28;19971;-69
2021/09/15 02:44:05;;;;;;;7.40;3.30;;;21.40;61.90;;;;;;5038834;28;20580;-67
2021/09/15 02:46:49;;;;;;;7.05;2.90;;;21.40;61.90;;;;;;5034020;28;20226;-68
2021/09/15 02:49:44;;;;;;;7.80;3.10;;;21.40;61.90;;;;;;5035746;28;20441;-68
2021/09/15 02:52:28;;;;;;;5.68;2.63;;;21.40;61.90;;;;;;5040121;28;20459;-68
2021/09/15 02:55:12;;;;;;;6.55;2.92;;;21.40;61.90;;;;;;5040774;28;20581;-68
2021/09/15 02:57:40;;;;;;;8.85;3.08;;;21.40;61.90;;;;;;5042166;28;20041;-67
2021/09/15 03:00:18;;;;;;;6.75;2.72;;;21.40;61.90;;;;;;5039735;28;20045;-68
2021/09/15 03:02:54;;;;;;;6.45;3.10;;;21.40;61.90;;;;;;5040279;28;20038;-68
2021/09/15 03:05:38;;;;;;;6.65;2.70;;;21.40;61.90;;;;;;5035715;28;20052;-68
2021/09/15 03:08:17;;;;;;;6.05;2.72;;;21.50;62.00;;;;;;5046286;28;20047;-68
2021/09/15 03:10:43;;;;;;;8.27;2.92;;;21.50;62.00;;;;;;5034875;28;20037;-68
2021/09/15 03:13:09;;;;;;;8.05;3.05;;;21.40;61.90;;;;;;5038133;28;20132;-68
2021/09/15 03:15:35;;;;;;;5.72;2.70;;;21.40;61.90;;;;;;5040778;28;20123;-68
2021/09/15 03:18:01;;;;;;;7.60;3.25;;;21.40;61.90;;;;;;5041211;28;20067;-69
2021/09/15 03:20:27;;;;;;;7.65;3.00;;;21.50;62.00;;;;;;5053063;28;20056;-68
2021/09/15 03:22:53;;;;;;;7.72;2.80;;;21.40;61.90;;;;;;5041001;28;20037;-70
2021/09/15 03:25:19;;;;;;;6.20;2.58;;;21.50;62.00;;;;;;5039970;28;20452;-70
2021/09/15 03:27:44;;;;;;;8.95;2.70;;;21.40;61.90;;;;;;5046114;28;20049;-71
2021/09/15 03:30:11;;;;;;;5.80;2.42;;;21.50;62.00;;;;;;5045701;28;20087;-71
2021/09/15 03:32:36;;;;;;;6.30;2.47;;;21.40;61.90;;;;;;5040003;28;20049;-70
2021/09/15 03:35:04;;;;;;;7.22;2.72;;;21.50;61.90;;;;;;5036126;28;20041;-70
2021/09/15 03:37:29;;;;;;;7.30;3.03;;;21.40;61.90;;;;;;5046499;28;20028;-71
2021/09/15 03:39:56;;;;;;;6.95;2.67;;;21.50;61.90;;;;;;5051165;28;20124;-71
2021/09/15 03:42:22;;;;;;;5.50;2.65;;;21.40;61.90;;;;;;5045113;28;20526;-70
2021/09/15 03:44:48;;;;;;;8.07;2.85;;;21.50;61.90;;;;;;5038159;28;20037;-70
2021/09/15 03:47:14;;;;;;;7.28;2.90;;;21.40;61.90;;;;;;5047191;28;20262;-71
2021/09/15 03:49:40;;;;;;;8.45;3.00;;;21.40;61.90;;;;;;5045121;28;20037;-70
2021/09/15 03:52:05;;;;;;;7.72;2.78;;;21.40;61.90;;;;;;5038384;28;20049;-71
2021/09/15 03:54:32;;;;;;;6.35;3.00;;;21.40;61.90;;;;;;5038294;28;20037;-71
2021/09/15 03:56:58;;;;;;;6.40;2.67;;;21.40;61.90;;;;;;5036712;28;20052;-70
2021/09/15 03:59:23;;;;;;;6.30;2.50;;;21.40;61.90;;;;;;5045616;28;20077;-70
2021/09/15 04:01:49;;;;;;;6.75;2.53;;;21.40;61.90;;;;;;5044397;28;20202;-71
2021/09/15 04:04:15;;;;;;;7.43;2.83;;;21.40;61.90;;;;;;5038017;28;20037;-70
2021/09/15 04:06:41;;;;;;;6.80;2.80;;;21.50;61.90;;;;;;5040826;28;20037;-70
2021/09/15 04:09:08;;;;;;;6.45;2.75;;;21.50;61.90;;;;;;5037843;28;20041;-70
2021/09/15 04:11:36;;;;;;;6.63;2.67;;;21.50;61.90;;;;;;5036553;28;20504;-70
2021/09/15 04:14:02;;;;;;;6.90;2.78;;;21.50;61.90;;;;;;5039782;28;20521;-71
2021/09/15 04:16:29;;;;;;;7.07;2.58;;;21.50;61.90;;;;;;5038287;28;20044;-70
2021/09/15 04:18:54;;;;;;;5.50;2.25;;;21.40;61.90;;;;;;5034288;28;20045;-70
2021/09/15 04:21:20;;;;;;;14.48;3.10;;;21.40;61.90;;;;;;5036810;28;20106;-69
2021/09/15 04:24:11;;;;;;;17.70;3.90;;;21.50;61.90;;;;;;5026176;28;20215;-69
2021/09/15 04:32:17;;;;;;;24.45;3.72;;;21.50;61.90;;;;;;5044157;28;20098;-69
2021/09/15 04:34:43;;;;;;;16.90;3.72;;;21.50;62.00;;;;;;5033071;28;20497;-69
2021/09/15 04:37:09;;;;;;;23.90;5.10;;;21.50;61.90;;;;;;5040855;28;20045;-69
2021/09/15 04:39:41;;;;;;;49.30;5.65;;;21.50;61.90;;;;;;5043623;28;20505;-69
2021/09/15 04:42:07;;;;;;;30.63;5.40;;;21.50;61.90;;;;;;5037421;28;20045;-69
2021/09/15 04:44:33;;;;;;;27.13;5.40;;;21.50;61.90;;;;;;5040185;28;20090;-69
2021/09/15 04:46:59;;;;;;;45.83;7.15;;;21.50;61.90;;;;;;5036309;28;20570;-69
2021/09/15 04:49:26;;;;;;;49.00;8.45;;;21.50;61.90;;;;;;5038804;28;20043;-69
2021/09/15 04:51:51;;;;;;;45.28;7.90;;;21.50;61.90;;;;;;5037398;28;20052;-70
2021/09/15 04:54:17;;;;;;;48.03;8.23;;;21.50;61.90;;;;;;5033865;28;20099;-69
2021/09/15 04:56:48;;;;;;;42.25;8.20;;;21.50;62.00;;;;;;5035059;28;20127;-70
2021/09/15 04:59:17;;;;;;;48.28;10.00;;;21.50;62.00;;;;;;5044321;28;20041;-70
2021/09/15 05:01:42;;;;;;;45.03;8.93;;;21.50;62.00;;;;;;5035423;28;20087;-70
2021/09/15 05:04:09;;;;;;;33.28;7.63;;;21.50;62.00;;;;;;5018764;28;20041;-69
2021/09/15 05:06:35;;;;;;;43.92;8.25;;;21.50;62.00;;;;;;5044772;28;20034;-69
2021/09/15 05:09:00;;;;;;;49.63;8.82;;;21.50;62.00;;;;;;5033405;28;20045;-69
2021/09/15 05:11:26;;;;;;;47.35;8.18;;;21.50;62.00;;;;;;5037490;28;20037;-69
2021/09/15 05:13:52;;;;;;;36.30;8.60;;;21.50;62.00;;;;;;5034484;28;20521;-69
2021/09/15 05:16:18;;;;;;;44.65;8.25;;;21.50;62.00;;;;;;5037532;28;20064;-69
2021/09/15 05:18:44;;;;;;;40.47;8.40;;;21.50;61.90;;;;;;5036790;28;20037;-69
2021/09/15 05:21:10;;;;;;;34.13;7.38;;;21.50;61.90;;;;;;5034890;28;20518;-69
2021/09/15 05:23:35;;;;;;;39.33;8.30;;;21.50;62.00;;;;;;5037301;28;20545;-70
2021/09/15 05:26:05;;;;;;;33.72;6.78;;;21.50;62.00;;;;;;5036724;28;20407;-69
2021/09/15 05:28:31;;;;;;;42.72;7.30;;;21.50;61.90;;;;;;5037156;28;20025;-69
2021/09/15 05:30:56;;;;;;;28.85;6.85;;;21.50;61.90;;;;;;5044178;28;20128;-69
2021/09/15 05:33:22;;;;;;;24.65;6.70;;;21.50;61.90;;;;;;5035268;28;20038;-70
2021/09/15 05:35:48;;;;;;;25.05;6.35;;;21.50;61.90;;;;;;5035240;28;20041;-69
2021/09/15 05:38:14;;;;;;;30.20;7.60;;;21.40;61.90;;;;;;5038149;28;20959;-70
2021/09/15 05:41:01;;;;;;;28.77;7.65;;;21.50;61.90;;;;;;5037588;28;20116;-66
2021/09/15 05:43:27;;;;;;;25.35;8.40;;;21.50;62.10;;;;;;5038685;28;20190;-66
2021/09/15 05:45:53;;;;;;;23.13;8.45;;;21.50;62.20;;;;;;5036812;28;20037;-67
2021/09/15 05:48:19;;;;;;;21.52;8.40;;;21.50;62.30;;;;;;5043266;28;20041;-67
2021/09/15 05:50:44;;;;;;;26.58;8.20;;;21.60;62.30;;;;;;5034362;28;20060;-66
2021/09/15 05:53:10;;;;;;;34.30;9.95;;;21.60;62.20;;;;;;5039490;28;20053;-68
2021/09/15 05:55:37;;;;;;;18.90;6.00;;;21.70;62.40;;;;;;5037669;28;20898;-68
2021/09/15 05:58:03;;;;;;;16.48;5.78;;;21.80;62.70;;;;;;5035199;28;20094;-72
2021/09/15 06:00:28;;;;;;;13.65;5.30;;;22.00;62.20;;;;;;5036359;28;20564;-71
2021/09/15 06:03:03;;;;;;;16.60;5.95;;;22.20;62.00;;;;;;5034928;28;20624;-71
2021/09/15 06:05:47;;;;;;;14.27;5.68;;;22.30;61.90;;;;;;5036064;28;20048;-71
2021/09/15 06:08:16;;;;;;;14.55;5.90;;;22.30;61.80;;;;;;5037171;28;20041;-71
2021/09/15 06:10:41;;;;;;;13.18;6.03;;;22.40;61.80;;;;;;5036053;28;20045;-71
2021/09/15 06:13:07;;;;;;;14.45;6.15;;;22.40;61.80;;;;;;5034381;28;20044;-71
2021/09/15 06:15:33;;;;;;;13.50;6.03;;;22.50;61.70;;;;;;5034537;28;20123;-70
2021/09/15 06:17:59;;;;;;;16.50;6.40;;;22.60;61.70;;;;;;5034344;28;20037;-71
2021/09/15 06:20:28;;;;;;;13.77;6.35;;;22.60;61.70;;;;;;5035495;28;20041;-71
2021/09/15 06:23:14;;;;;;;14.38;6.53;;;22.60;61.70;;;;;;5036424;28;20556;-72
2021/09/15 06:25:49;;;;;;;12.20;5.93;;;22.70;61.70;;;;;;5033680;28;20068;-70
2021/09/15 06:28:15;;;;;;;14.15;6.80;;;22.70;61.70;;;;;;5035736;28;20069;-69
2021/09/15 06:30:41;;;;;;;13.88;6.43;;;22.70;61.70;;;;;;5035302;28;20036;-71
2021/09/15 06:33:08;;;;;;;16.15;6.57;;;22.80;61.60;;;;;;5033780;28;20045;-70
2021/09/15 06:35:34;;;;;;;10.10;6.47;;;22.80;61.70;;;;;;5033606;28;20075;-70
2021/09/15 06:37:59;;;;;;;14.65;7.13;;;22.80;61.60;;;;;;5032810;28;20693;-70
2021/09/15 06:40:26;;;;;;;17.05;7.18;;;22.80;61.80;;;;;;5038234;28;20583;-70
2021/09/15 06:42:51;;;;;;;18.70;7.25;;;22.90;61.70;;;;;;5034555;28;20036;-70
2021/09/15 06:45:17;;;;;;;20.88;7.03;;;22.90;61.80;;;;;;5033742;28;20037;-71
2021/09/15 06:47:44;;;;;;;29.10;7.50;;;22.90;61.70;;;;;;5036206;28;20045;-70
2021/09/15 06:50:14;;;;;;;22.55;8.00;;;22.90;61.60;;;;;;5035637;28;20048;-67
2021/09/15 06:52:40;;;;;;;32.08;8.07;;;23.00;61.70;;;;;;5035098;28;20045;-68
2021/09/15 06:55:07;;;;;;;22.48;8.07;;;23.00;61.60;;;;;;5035689;28;20046;-71
2021/09/15 06:57:33;;;;;;;20.13;7.80;;;23.00;61.60;;;;;;5032799;28;20099;-71
2021/09/15 06:59:59;;;;;;;20.10;7.38;;;23.10;61.80;;;;;;5034107;28;20561;-72
2021/09/15 07:02:25;;;;;;;28.98;7.38;;;23.10;61.60;;;;;;5034365;28;20034;-71
2021/09/15 07:04:51;;;;;;;27.20;6.88;;;23.10;61.50;;;;;;5032677;28;20038;-71
2021/09/15 07:07:18;;;;;;;18.88;7.22;;;23.20;61.50;;;;;;5032466;28;20037;-71
2021/09/15 07:09:43;;;;;;;20.85;7.03;;;23.20;61.50;;;;;;5034460;28;20041;-69
2021/09/15 07:12:09;;;;;;;18.30;7.35;;;23.30;61.60;;;;;;5033821;28;20518;-71
2021/09/15 07:14:35;;;;;;;20.05;6.72;;;23.30;61.60;;;;;;5035317;28;20516;-69
2021/09/15 07:17:00;;;;;;;20.13;6.80;;;23.30;61.60;;;;;;5032955;28;20048;-70
2021/09/15 07:19:26;;;;;;;19.33;6.90;;;23.30;61.50;;;;;;5033184;28;20038;-68
2021/09/15 07:21:52;;;;;;;16.75;6.40;;;23.30;61.50;;;;;;5034681;28;20523;-71
2021/09/15 07:24:17;;;;;;;18.30;6.47;;;23.40;61.50;;;;;;5036191;28;20507;-71
2021/09/15 07:26:44;;;;;;;17.75;7.03;;;23.40;61.50;;;;;;5033715;28;20196;-72
2021/09/15 07:29:10;;;;;;;27.98;6.50;;;23.40;61.50;;;;;;5034697;28;20029;-71
2021/09/15 07:31:38;;;;;;;23.63;6.88;;;23.40;61.70;;;;;;5033126;28;20029;-71
2021/09/15 07:34:05;;;;;;;21.00;6.90;;;23.50;61.50;;;;;;5032813;28;20036;-72
2021/09/15 07:36:31;;;;;;;23.45;6.55;;;23.50;61.40;;;;;;5035559;28;20048;-73
2021/09/15 07:38:57;;;;;;;16.15;6.40;;;23.50;61.40;;;;;;5040464;28;20095;-71
2021/09/15 07:41:23;;;;;;;22.85;6.13;;;23.50;61.40;;;;;;5037724;28;20837;-70
2021/09/15 07:43:48;;;;;;;15.07;5.90;;;23.50;61.40;;;;;;5035667;28;20045;-71
2021/09/15 07:46:14;;;;;;;18.67;6.53;;;23.50;61.40;;;;;;5037331;28;21092;-72
2021/09/15 07:48:40;;;;;;;22.77;6.47;;;23.60;61.40;;;;;;5038141;28;20112;-72
2021/09/15 07:51:06;;;;;;;16.33;5.88;;;23.50;61.40;;;;;;5036962;28;20876;-71
2021/09/15 07:53:31;;;;;;;20.35;6.80;;;23.50;61.30;;;;;;5038016;28;20033;-71
2021/09/15 07:55:57;;;;;;;11.82;6.00;;;23.50;61.40;;;;;;5035997;28;20041;-72
2021/09/15 07:58:24;;;;;;;12.63;5.95;;;23.50;61.30;;;;;;5039343;28;20042;-72
2021/09/15 08:00:49;;;;;;;19.65;6.32;;;23.60;61.50;;;;;;5038275;28;20702;-72
2021/09/15 08:03:15;;;;;;;13.77;5.85;;;23.60;61.40;;;;;;5037829;28;20049;-71
2021/09/15 08:05:41;;;;;;;13.55;5.60;;;23.60;61.30;;;;;;5039042;28;20038;-71
2021/09/15 08:08:06;;;;;;;14.82;5.80;;;23.60;61.40;;;;;;5035526;28;20442;-72
2021/09/15 08:10:33;;;;;;;12.75;5.05;;;23.60;61.30;;;;;;5036207;28;20735;-70
2021/09/15 08:12:59;;;;;;;15.10;5.47;;;23.60;61.30;;;;;;5039195;28;20775;-72
2021/09/15 08:15:25;;;;;;;15.30;5.47;;;23.60;61.30;;;;;;5036740;28;20049;-70
2021/09/15 08:17:51;;;;;;;12.18;5.53;;;23.70;61.30;;;;;;5038282;28;20044;-71
2021/09/15 08:20:17;;;;;;;18.50;5.68;;;23.70;61.30;;;;;;5034693;28;20056;-71
2021/09/15 08:22:43;;;;;;;12.75;5.22;;;23.70;61.30;;;;;;5035375;28;20064;-71
2021/09/15 08:25:08;;;;;;;14.10;5.50;;;23.70;61.30;;;;;;5036230;28;20746;-70
2021/09/15 08:27:34;;;;;;;12.45;5.00;;;23.70;61.40;;;;;;5040312;28;20128;-72
2021/09/15 08:30:00;;;;;;;14.45;5.60;;;23.70;61.30;;;;;;5035192;28;20045;-72
2021/09/15 08:32:25;;;;;;;14.15;5.82;;;23.70;61.30;;;;;;5035306;28;20033;-70
2021/09/15 08:34:51;;;;;;;11.57;4.60;;;23.70;61.20;;;;;;5036271;28;20076;-71
2021/09/15 08:37:17;;;;;;;14.00;5.07;;;23.70;61.30;;;;;;5036651;28;20069;-70
2021/09/15 08:39:42;;;;;;;15.02;5.43;;;23.70;61.30;;;;;;5037782;28;20049;-72
2021/09/15 08:42:08;;;;;;;13.75;5.93;;;23.70;61.30;;;;;;5036505;28;20150;-72
2021/09/15 08:44:34;;;;;;;16.15;5.00;;;23.70;61.30;;;;;;5034084;28;20457;-71
2021/09/15 08:47:01;;;;;;;12.15;5.03;;;23.70;61.20;;;;;;5037338;28;20037;-70
2021/09/15 08:49:30;;;;;;;14.70;5.07;;;23.70;61.20;;;;;;5039040;28;20131;-70
2021/09/15 08:51:56;;;;;;;17.30;5.25;;;23.80;61.30;;;;;;5036588;28;20041;-70
2021/09/15 08:54:22;;;;;;;14.15;5.10;;;23.80;61.30;;;;;;5037013;28;20052;-71
2021/09/15 08:56:48;;;;;;;12.98;5.13;;;23.80;61.20;;;;;;5035080;28;20049;-70
2021/09/15 08:59:14;;;;;;;13.20;5.00;;;23.80;61.30;;;;;;5034480;28;20045;-68
2021/09/15 09:01:39;;;;;;;12.70;5.15;;;23.80;61.20;;;;;;5036187;28;20045;-69
2021/09/15 09:04:05;;;;;;;12.55;4.72;;;23.80;61.20;;;;;;5032827;28;20045;-68
2021/09/15 09:06:34;;;;;;;13.52;4.85;;;23.80;61.20;;;;;;5036764;28;20120;-73
2021/09/15 09:09:02;;;;;;;15.27;4.50;;;23.90;61.30;;;;;;5035183;28;20984;-73
2021/09/15 09:11:31;;;;;;;12.48;4.95;;;23.90;61.20;;;;;;5037479;28;20633;-73
2021/09/15 09:14:06;;;;;;;11.80;4.55;;;23.80;61.20;;;;;;5033324;28;20042;-73
2021/09/15 09:16:41;;;;;;;14.20;4.80;;;23.80;61.20;;;;;;5035436;28;20041;-72
2021/09/15 09:19:09;;;;;;;10.05;4.65;;;23.80;61.20;;;;;;5033119;28;20041;-71
2021/09/15 09:21:38;;;;;;;10.38;4.65;;;23.80;61.20;;;;;;5037395;28;20033;-73
2021/09/15 09:24:06;;;;;;;11.38;4.70;;;23.80;61.20;;;;;;5035219;28;20486;-73
2021/09/15 09:26:55;;;;;;;14.18;4.43;;;23.80;61.20;;;;;;5044407;28;20029;-70
2021/09/15 09:29:24;;;;;;;9.77;4.18;;;23.80;61.20;;;;;;5043141;28;20060;-74
2021/09/15 09:32:04;;;;;;;12.45;4.50;;;23.90;61.30;;;;;;5038171;28;20036;-74
2021/09/15 09:34:38;;;;;;;10.35;4.43;;;23.90;61.20;;;;;;5034365;28;20067;-73
2021/09/15 09:37:15;;;;;;;21.75;4.53;;;23.80;61.30;;;;;;5037757;28;20037;-73
2021/09/15 09:39:44;;;;;;;17.65;4.50;;;23.90;61.20;;;;;;5035895;28;20041;-73
2021/09/15 09:42:28;;;;;;;11.25;4.53;;;23.90;61.20;;;;;;5031528;28;20037;-72
2021/09/15 09:45:04;;;;;;;15.32;4.60;;;24.00;61.20;;;;;;5035533;28;20079;-71
2021/09/15 09:47:31;;;;;;;12.52;4.70;;;24.10;61.20;;;;;;5035943;28;20073;-71
2021/09/15 09:50:24;;;;;;;12.23;4.32;;;24.10;61.20;;;;;;5035784;28;20065;-71
2021/09/15 09:53:01;;;;;;;14.63;4.75;;;24.20;61.20;;;;;;5037099;28;20040;-71
2021/09/15 09:55:36;;;;;;;10.45;3.80;;;24.20;61.10;;;;;;5034432;28;20136;-71
2021/09/15 09:58:03;;;;;;;10.75;4.03;;;24.30;61.20;;;;;;5036612;28;20041;-72
2021/09/15 10:00:30;;;;;;;9.52;4.20;;;24.30;61.20;;;;;;5034506;28;20159;-72
2021/09/15 10:02:57;;;;;;;14.88;3.97;;;24.40;61.20;;;;;;5034042;28;20060;-71
2021/09/15 10:05:23;;;;;;;14.40;4.35;;;24.40;61.10;;;;;;5034813;28;20166;-72
2021/09/15 10:07:50;;;;;;;9.32;3.78;;;24.40;61.10;;;;;;5034397;28;20574;-71
2021/09/15 10:10:18;;;;;;;8.75;4.10;;;24.50;61.20;;;;;;5035980;28;20049;-72
2021/09/15 10:12:45;;;;;;;9.18;3.80;;;24.50;61.10;;;;;;5035312;28;20033;-73
2021/09/15 10:15:12;;;;;;;10.32;3.90;;;24.50;61.10;;;;;;5034615;28;20037;-70
2021/09/15 10:17:58;;;;;;;12.40;3.92;;;24.50;61.10;;;;;;5040193;28;20153;-71
2021/09/15 10:20:30;;;;;;;8.32;3.60;;;24.50;61.10;;;;;;5031667;28;20180;-72
2021/09/15 10:22:57;;;;;;;8.48;3.50;;;24.60;61.10;;;;;;5037189;28;20042;-71
2021/09/15 10:25:39;;;;;;;12.13;4.15;;;24.60;61.10;;;;;;5033817;28;20034;-74
2021/09/15 10:28:09;;;;;;;11.25;3.90;;;24.50;60.90;;;;;;5034856;28;20072;-74
2021/09/15 10:30:45;;;;;;;13.15;3.95;;;24.30;60.90;;;;;;5032820;28;20561;-74
2021/09/15 10:33:35;;;;;;;16.95;3.90;;;24.10;60.90;;;;;;5033949;28;20128;-74
2021/09/15 10:36:22;;;;;;;17.60;4.03;;;24.00;60.90;;;;;;5034304;28;20494;-75
2021/09/15 10:38:57;;;;;;;11.38;3.90;;;24.00;60.90;;;;;;5025866;28;20418;-73
2021/09/15 10:41:38;;;;;;;11.82;3.70;;;23.90;61.00;;;;;;5033404;28;20125;-76
2021/09/15 10:44:10;;;;;;;9.40;3.97;;;23.80;61.00;;;;;;5034363;28;20045;-75
2021/09/15 10:46:36;;;;;;;8.55;3.65;;;23.70;61.00;;;;;;5036388;28;20121;-73
2021/09/15 10:49:23;;;;;;;9.45;3.60;;;23.60;61.10;;;;;;5033808;28;20413;-74
2021/09/15 10:52:10;;;;;;;9.85;3.60;;;23.60;61.00;;;;;;5034734;28;20052;-75
2021/09/15 10:54:55;;;;;;;8.10;3.30;;;23.50;61.00;;;;;;5035637;28;20118;-75
2021/09/15 10:57:27;;;;;;;13.80;3.53;;;23.40;61.00;;;;;;5033283;28;20037;-73
2021/09/15 11:00:14;;;;;;;10.57;3.75;;;23.40;61.20;;;;;;5034406;28;20272;-76
2021/09/15 11:02:44;;;;;;;13.77;3.80;;;23.60;61.20;;;;;;5032656;28;20060;-73
2021/09/15 11:05:28;;;;;;;9.45;3.65;;;23.80;61.20;;;;;;5030544;28;20045;-76
2021/09/15 11:07:54;;;;;;;8.80;3.63;;;23.90;61.20;;;;;;5035226;28;20045;-73
2021/09/15 11:10:34;;;;;;;14.77;3.90;;;24.00;61.10;;;;;;5034905;28;20041;-75
2021/09/15 11:12:59;;;;;;;8.70;3.58;;;24.10;61.10;;;;;;5041833;28;20041;-74
2021/09/15 11:15:31;;;;;;;7.75;3.60;;;24.20;61.10;;;;;;5036219;28;20096;-73
2021/09/15 11:17:57;;;;;;;7.97;3.67;;;24.30;61.10;;;;;;5035642;28;20037;-74
2021/09/15 11:20:28;;;;;;;9.82;3.70;;;24.30;61.00;;;;;;5035962;28;20131;-74
2021/09/15 11:22:54;;;;;;;10.10;3.85;;;24.40;61.00;;;;;;5037785;28;20034;-74
2021/09/15 11:25:23;;;;;;;8.32;3.72;;;24.40;61.00;;;;;;5038118;28;20608;-74
2021/09/15 11:28:15;;;;;;;8.98;3.70;;;24.50;61.00;;;;;;5038474;28;20048;-73
2021/09/15 11:30:56;;;;;;;10.80;4.45;;;24.50;61.00;;;;;;5040169;28;20119;-73
2021/09/15 11:33:36;;;;;;;10.23;4.28;;;24.50;60.90;;;;;;5039164;28;20055;-73
2021/09/15 11:36:04;;;;;;;9.57;3.78;;;24.60;61.00;;;;;;5038564;28;20049;-72
2021/09/15 11:38:33;;;;;;;11.00;4.22;;;24.60;60.90;;;;;;5037040;28;20044;-73
2021/09/15 11:41:16;;;;;;;10.90;4.50;;;24.60;60.90;;;;;;5036513;28;20486;-72
2021/09/15 11:43:47;;;;;;;10.70;4.32;;;24.60;60.90;;;;;;5037295;28;20068;-72
2021/09/15 11:46:14;;;;;;;11.15;4.28;;;24.60;60.90;;;;;;5039179;28;20495;-72
2021/09/15 11:48:41;;;;;;;11.07;5.20;;;24.60;60.90;;;;;;5039753;28;20056;-72
2021/09/15 11:51:15;;;;;;;19.05;4.78;;;24.60;60.90;;;;;;5040521;28;20600;-72
2021/09/15 11:53:41;;;;;;;10.80;5.10;;;24.60;61.10;;;;;;5038762;28;20659;-73
2021/09/15 11:56:06;;;;;;;11.20;4.78;;;24.60;61.00;;;;;;5039692;28;20060;-72
2021/09/15 11:58:33;;;;;;;11.23;5.07;;;24.70;60.90;;;;;;5037607;28;20063;-72
2021/09/15 12:00:58;;;;;;;10.73;5.15;;;24.70;60.90;;;;;;5039075;28;20498;-72
2021/09/15 12:03:28;;;;;;;10.57;4.97;;;24.70;60.90;;;;;;5038726;28;20034;-73
2021/09/15 12:05:59;;;;;;;11.57;5.22;;;24.70;60.90;;;;;;5038798;28;20390;-72
2021/09/15 12:08:26;;;;;;;11.90;5.40;;;24.70;60.90;;;;;;5038077;28;20116;-72
2021/09/15 12:10:58;;;;;;;18.60;6.07;;;24.70;60.90;;;;;;5039114;28;20060;-71
2021/09/15 12:13:31;;;;;;;16.48;6.85;;;24.80;60.90;;;;;;5039647;28;20736;-71
2021/09/15 12:15:58;;;;;;;14.77;6.20;;;24.80;60.90;;;;;;5039838;28;20033;-71
2021/09/15 12:18:41;;;;;;;13.05;6.40;;;24.80;60.90;;;;;;5037109;28;20505;-71
2021/09/15 12:21:16;;;;;;;13.60;7.22;;;24.80;60.90;;;;;;5037206;28;20057;-73
2021/09/15 12:23:41;;;;;;;19.20;8.00;;;24.80;60.90;;;;;;5034803;28;20041;-71
2021/09/15 12:26:07;;;;;;;16.60;7.75;;;24.80;61.00;;;;;;5035133;28;20048;-73
2021/09/15 12:28:34;;;;;;;18.30;8.55;;;24.80;61.10;;;;;;5035141;28;20067;-73
2021/09/15 12:31:01;;;;;;;19.58;9.30;;;24.80;61.00;;;;;;5037083;28;20041;-73
2021/09/15 12:33:29;;;;;;;19.45;10.20;;;24.80;60.90;;;;;;5034694;28;20804;-73
2021/09/15 12:36:17;;;;;;;16.63;9.55;;;24.80;60.90;;;;;;5040567;28;20128;-73
2021/09/15 12:38:57;;;;;;;20.23;9.85;;;24.90;60.80;;;;;;5037655;28;20053;-71
2021/09/15 12:41:31;;;;;;;24.88;11.02;;;24.80;60.80;;;;;;5036771;28;20047;-73
2021/09/15 12:44:11;;;;;;;20.70;10.82;;;24.80;60.80;;;;;;5036062;28;20076;-73
2021/09/15 12:46:48;;;;;;;19.38;11.25;;;24.90;60.90;;;;;;5033769;28;20676;-73
2021/09/15 12:49:33;;;;;;;21.77;11.80;;;24.90;60.90;;;;;;5036569;28;20115;-73
2021/09/15 12:52:16;;;;;;;23.42;11.90;;;24.90;60.80;;;;;;5042292;28;20422;-73
2021/09/15 12:54:56;;;;;;;23.80;12.07;;;24.90;60.80;;;;;;5037764;28;20049;-71
2021/09/15 12:57:27;;;;;;;25.95;12.80;;;24.90;60.80;;;;;;5036054;28;20049;-74
2021/09/15 12:59:53;;;;;;;25.08;12.80;;;24.90;60.80;;;;;;5035200;28;20037;-73
2021/09/15 13:02:30;;;;;;;24.42;13.30;;;24.90;60.80;;;;;;5034411;28;20037;-73